RYR82R LIMJ-LICC
Flight info
| Callsign | RYR82R |
|---|---|
| Flight time | 1h 27m |
| Altitude | 37000 |
| Route | UNITA DCT ELB DCT PODOX DCT LURON DCT BEKIV DCT ENEPA DCT LIBRO |
| Aircraft | B738/M-SDE2E3FGHIRWXY/LB1 |
Departure
| Time | 2026-04-26 18:43 |
|---|---|
| Airport | Genoa Cristoforo Colombo Airport (LIMJ) |
Arrival
| Time | 2026-04-26 20:10 |
|---|---|
| Airport | Catania-Fontanarossa Airport (LICC) |
| Time | Latitude | Longitude | Altitude | Speed | Heading |
|---|---|---|---|---|---|
| 2026-04-26 18:06 | 44.41314 | 8.84811 | 36 ft | 0 kts | 195° |
| 2026-04-26 18:32 | 44.41325 | 8.84816 | 37 ft | 2 kts | 195° |
| 2026-04-26 18:32 | 44.41340 | 8.84821 | 37 ft | 2 kts | 195° |
| 2026-04-26 18:32 | 44.41354 | 8.84826 | 37 ft | 2 kts | 195° |
| 2026-04-26 18:32 | 44.41365 | 8.84830 | 38 ft | 0 kts | 195° |
| 2026-04-26 18:33 | 44.41375 | 8.84831 | 38 ft | 1 kts | 144° |
| 2026-04-26 18:33 | 44.41380 | 8.84822 | 38 ft | 0 kts | 102° |
| 2026-04-26 18:33 | 44.41381 | 8.84813 | 38 ft | 0 kts | 105° |
| 2026-04-26 18:36 | 44.41380 | 8.84814 | 38 ft | 0 kts | 104° |
| 2026-04-26 18:36 | 44.41372 | 8.84863 | 38 ft | 7 kts | 104° |
| 2026-04-26 18:36 | 44.41359 | 8.84934 | 38 ft | 9 kts | 103° |
| 2026-04-26 18:37 | 44.41344 | 8.85019 | 37 ft | 10 kts | 104° |
| 2026-04-26 18:37 | 44.41320 | 8.85142 | 34 ft | 11 kts | 105° |
| 2026-04-26 18:37 | 44.41309 | 8.85200 | 33 ft | 3 kts | 106° |
| 2026-04-26 18:37 | 44.41298 | 8.85235 | 33 ft | 0 kts | 124° |
| 2026-04-26 18:38 | 44.41284 | 8.85255 | 32 ft | 0 kts | 139° |
| 2026-04-26 18:38 | 44.41278 | 8.85263 | 32 ft | 7 kts | 140° |
| 2026-04-26 18:38 | 44.41222 | 8.85279 | 31 ft | 5 kts | 192° |
| 2026-04-26 18:39 | 44.41189 | 8.85266 | 32 ft | 4 kts | 196° |
| 2026-04-26 18:39 | 44.41132 | 8.85244 | 31 ft | 13 kts | 195° |
| 2026-04-26 18:39 | 44.41101 | 8.85233 | 31 ft | 0 kts | 196° |
| 2026-04-26 18:40 | 44.41101 | 8.85232 | 31 ft | 0 kts | 196° |
| 2026-04-26 18:41 | 44.41047 | 8.85187 | 31 ft | 15 kts | 226° |
| 2026-04-26 18:41 | 44.41017 | 8.85099 | 31 ft | 0 kts | 286° |
| 2026-04-26 18:42 | 44.41033 | 8.85021 | 31 ft | 34 kts | 285° |
| 2026-04-26 18:42 | 44.41163 | 8.84351 | 27 ft | 107 kts | 287° |
| 2026-04-26 18:42 | 44.41420 | 8.83032 | 33 ft | 172 kts | 284° |
| 2026-04-26 18:43 | 44.41760 | 8.81334 | 667 ft | 185 kts | 285° |
| 2026-04-26 18:43 | 44.42054 | 8.79669 | 1609 ft | 175 kts | 275° |
| 2026-04-26 18:43 | 44.41867 | 8.77986 | 1908 ft | 187 kts | 244° |
| 2026-04-26 18:43 | 44.41049 | 8.76559 | 2417 ft | 194 kts | 216° |
| 2026-04-26 18:44 | 44.39806 | 8.75755 | 2962 ft | 199 kts | 198° |
| 2026-04-26 18:44 | 44.38446 | 8.75404 | 3528 ft | 205 kts | 177° |
| 2026-04-26 18:44 | 44.37091 | 8.75995 | 4117 ft | 210 kts | 150° |
| 2026-04-26 18:44 | 44.35823 | 8.77061 | 4661 ft | 220 kts | 150° |
| 2026-04-26 18:45 | 44.34485 | 8.78129 | 5255 ft | 226 kts | 152° |
| 2026-04-26 18:45 | 44.33084 | 8.79167 | 5888 ft | 230 kts | 153° |
| 2026-04-26 18:45 | 44.31663 | 8.80195 | 6536 ft | 233 kts | 153° |
| 2026-04-26 18:45 | 44.30204 | 8.81146 | 7169 ft | 235 kts | 162° |
| 2026-04-26 18:46 | 44.28588 | 8.81500 | 7793 ft | 238 kts | 182° |
| 2026-04-26 18:46 | 44.26922 | 8.81332 | 8326 ft | 246 kts | 185° |
| 2026-04-26 18:46 | 44.25208 | 8.81122 | 8890 ft | 251 kts | 184° |
| 2026-04-26 18:46 | 44.23456 | 8.80967 | 9491 ft | 255 kts | 183° |
| 2026-04-26 18:47 | 44.21679 | 8.80847 | 10111 ft | 258 kts | 182° |
| 2026-04-26 18:47 | 44.19875 | 8.80741 | 10717 ft | 261 kts | 181° |
| 2026-04-26 18:47 | 44.18052 | 8.80987 | 11072 ft | 273 kts | 159° |
| 2026-04-26 18:47 | 44.16366 | 8.82289 | 11435 ft | 285 kts | 143° |
| 2026-04-26 18:48 | 44.14756 | 8.84020 | 11743 ft | 300 kts | 142° |
| 2026-04-26 18:48 | 44.13056 | 8.85794 | 12079 ft | 315 kts | 144° |
| 2026-04-26 18:48 | 44.11199 | 8.87578 | 12420 ft | 329 kts | 146° |
| 2026-04-26 18:48 | 44.09226 | 8.89373 | 12730 ft | 345 kts | 147° |
| 2026-04-26 18:49 | 44.07185 | 8.91188 | 13207 ft | 353 kts | 147° |
| 2026-04-26 18:49 | 44.05097 | 8.93034 | 13767 ft | 358 kts | 147° |
| 2026-04-26 18:49 | 44.02987 | 8.94901 | 14093 ft | 364 kts | 147° |
| 2026-04-26 18:49 | 44.00834 | 8.96806 | 14137 ft | 363 kts | 147° |
| 2026-04-26 18:50 | 43.98717 | 8.98685 | 14141 ft | 361 kts | 147° |
| 2026-04-26 18:50 | 43.96624 | 9.00547 | 14130 ft | 361 kts | 147° |
| 2026-04-26 18:50 | 43.94529 | 9.02454 | 14140 ft | 361 kts | 144° |
| 2026-04-26 18:50 | 43.92477 | 9.04584 | 14443 ft | 371 kts | 141° |
| 2026-04-26 18:51 | 43.90507 | 9.06834 | 15231 ft | 368 kts | 140° |
| 2026-04-26 18:51 | 43.88565 | 9.09129 | 15788 ft | 372 kts | 139° |
| 2026-04-26 18:51 | 43.86608 | 9.11456 | 16324 ft | 375 kts | 139° |
| 2026-04-26 18:51 | 43.84605 | 9.13823 | 16845 ft | 379 kts | 139° |
| 2026-04-26 18:52 | 43.82580 | 9.16193 | 17374 ft | 383 kts | 140° |
| 2026-04-26 18:52 | 43.80534 | 9.18570 | 17901 ft | 387 kts | 140° |
| 2026-04-26 18:52 | 43.78472 | 9.20953 | 18421 ft | 390 kts | 140° |
| 2026-04-26 18:52 | 43.76388 | 9.23351 | 18935 ft | 394 kts | 140° |
| 2026-04-26 18:53 | 43.74262 | 9.25794 | 19450 ft | 397 kts | 140° |
| 2026-04-26 18:53 | 43.72139 | 9.28230 | 19949 ft | 401 kts | 140° |
| 2026-04-26 18:53 | 43.69980 | 9.30704 | 20446 ft | 404 kts | 140° |
| 2026-04-26 18:53 | 43.67815 | 9.33183 | 20928 ft | 407 kts | 140° |
| 2026-04-26 18:54 | 43.65660 | 9.35650 | 21401 ft | 410 kts | 140° |
| 2026-04-26 18:54 | 43.63440 | 9.38188 | 21874 ft | 413 kts | 140° |
| 2026-04-26 18:54 | 43.61242 | 9.40700 | 22335 ft | 416 kts | 140° |
| 2026-04-26 18:54 | 43.59016 | 9.43242 | 22792 ft | 419 kts | 140° |
| 2026-04-26 18:55 | 43.56765 | 9.45812 | 23240 ft | 421 kts | 140° |
| 2026-04-26 18:55 | 43.54494 | 9.48401 | 23676 ft | 424 kts | 140° |
| 2026-04-26 18:55 | 43.52221 | 9.50991 | 24098 ft | 427 kts | 140° |
| 2026-04-26 18:55 | 43.49947 | 9.53579 | 24508 ft | 429 kts | 140° |
| 2026-04-26 18:56 | 43.47617 | 9.56228 | 24921 ft | 432 kts | 141° |
| 2026-04-26 18:56 | 43.45327 | 9.58827 | 25319 ft | 435 kts | 141° |
| 2026-04-26 18:56 | 43.42981 | 9.61489 | 25717 ft | 437 kts | 141° |
| 2026-04-26 18:56 | 43.40619 | 9.64164 | 26109 ft | 440 kts | 141° |
| 2026-04-26 18:57 | 43.38260 | 9.66833 | 26493 ft | 442 kts | 141° |
| 2026-04-26 18:57 | 43.36679 | 9.68621 | 26743 ft | 443 kts | 141° |
| 2026-04-26 18:57 | 43.33489 | 9.72224 | 27243 ft | 446 kts | 141° |
| 2026-04-26 18:57 | 43.31096 | 9.74923 | 27608 ft | 448 kts | 141° |
| 2026-04-26 18:58 | 43.28684 | 9.77642 | 27961 ft | 451 kts | 141° |
| 2026-04-26 18:58 | 43.26258 | 9.80374 | 28339 ft | 452 kts | 141° |
| 2026-04-26 18:58 | 43.23792 | 9.83147 | 28690 ft | 454 kts | 141° |
| 2026-04-26 18:58 | 43.21354 | 9.85886 | 29024 ft | 457 kts | 141° |
| 2026-04-26 18:59 | 43.18879 | 9.88666 | 29354 ft | 459 kts | 141° |
| 2026-04-26 18:59 | 43.16419 | 9.91424 | 29691 ft | 461 kts | 141° |
| 2026-04-26 18:59 | 43.13923 | 9.94218 | 30031 ft | 463 kts | 141° |
| 2026-04-26 18:59 | 43.11414 | 9.97024 | 30367 ft | 465 kts | 141° |
| 2026-04-26 19:00 | 43.08899 | 9.99835 | 30696 ft | 468 kts | 141° |
| 2026-04-26 19:00 | 43.06387 | 10.02637 | 31014 ft | 470 kts | 141° |
| 2026-04-26 19:00 | 43.03862 | 10.05453 | 31329 ft | 472 kts | 141° |
| 2026-04-26 19:00 | 43.01293 | 10.08314 | 31640 ft | 474 kts | 141° |
| 2026-04-26 19:01 | 42.98730 | 10.11165 | 31942 ft | 475 kts | 141° |
| 2026-04-26 19:01 | 42.96198 | 10.13978 | 32385 ft | 472 kts | 141° |
| 2026-04-26 19:01 | 42.93665 | 10.16789 | 32723 ft | 472 kts | 141° |
| 2026-04-26 19:01 | 42.91109 | 10.19624 | 33082 ft | 471 kts | 141° |
| 2026-04-26 19:02 | 42.88576 | 10.22430 | 33437 ft | 470 kts | 141° |
| 2026-04-26 19:02 | 42.86042 | 10.25234 | 33790 ft | 469 kts | 141° |
| 2026-04-26 19:02 | 42.83514 | 10.28029 | 34137 ft | 468 kts | 141° |
| 2026-04-26 19:02 | 42.81863 | 10.29852 | 34359 ft | 468 kts | 142° |
| 2026-04-26 19:03 | 42.78476 | 10.33588 | 34784 ft | 467 kts | 142° |
| 2026-04-26 19:03 | 42.75930 | 10.36308 | 35076 ft | 466 kts | 144° |
| 2026-04-26 19:03 | 42.73292 | 10.38768 | 35355 ft | 465 kts | 149° |
| 2026-04-26 19:03 | 42.70442 | 10.40886 | 35636 ft | 463 kts | 156° |
| 2026-04-26 19:04 | 42.67514 | 10.42544 | 35870 ft | 460 kts | 162° |
| 2026-04-26 19:04 | 42.64479 | 10.43861 | 36103 ft | 458 kts | 166° |
| 2026-04-26 19:04 | 42.61407 | 10.45001 | 36328 ft | 457 kts | 167° |
| 2026-04-26 19:04 | 42.58340 | 10.46076 | 36546 ft | 456 kts | 167° |
| 2026-04-26 19:05 | 42.52191 | 10.48254 | 36934 ft | 455 kts | 167° |
| 2026-04-26 19:05 | 42.49137 | 10.49372 | 37113 ft | 454 kts | 166° |
| 2026-04-26 19:06 | 42.43078 | 10.51662 | 37171 ft | 455 kts | 166° |
| 2026-04-26 19:06 | 42.37028 | 10.54015 | 37166 ft | 452 kts | 165° |
| 2026-04-26 19:07 | 42.30987 | 10.56425 | 37142 ft | 453 kts | 164° |
| 2026-04-26 19:07 | 42.25166 | 10.59588 | 37144 ft | 456 kts | 155° |
| 2026-04-26 19:08 | 42.19558 | 10.63736 | 37153 ft | 458 kts | 151° |
| 2026-04-26 19:08 | 42.14182 | 10.68063 | 37154 ft | 457 kts | 151° |
| 2026-04-26 19:09 | 42.08726 | 10.72470 | 37152 ft | 457 kts | 151° |
| 2026-04-26 19:09 | 42.03277 | 10.76811 | 37145 ft | 457 kts | 152° |
| 2026-04-26 19:10 | 41.97842 | 10.81090 | 37139 ft | 457 kts | 152° |
| 2026-04-26 19:10 | 41.92363 | 10.85374 | 37142 ft | 457 kts | 152° |
| 2026-04-26 19:11 | 41.86886 | 10.89638 | 37138 ft | 457 kts | 152° |
| 2026-04-26 19:11 | 41.81396 | 10.93900 | 37136 ft | 456 kts | 152° |
| 2026-04-26 19:12 | 41.75924 | 10.98139 | 37145 ft | 456 kts | 152° |
| 2026-04-26 19:12 | 41.70405 | 11.02406 | 37148 ft | 456 kts | 152° |
| 2026-04-26 19:13 | 41.64981 | 11.06591 | 37147 ft | 456 kts | 152° |
| 2026-04-26 19:13 | 41.59475 | 11.10831 | 37147 ft | 455 kts | 152° |
| 2026-04-26 19:14 | 41.53999 | 11.15040 | 37147 ft | 455 kts | 152° |
| 2026-04-26 19:14 | 41.48534 | 11.19230 | 37146 ft | 455 kts | 152° |
| 2026-04-26 19:15 | 41.43078 | 11.23405 | 37145 ft | 455 kts | 152° |
| 2026-04-26 19:15 | 41.37564 | 11.27618 | 37153 ft | 455 kts | 152° |
| 2026-04-26 19:16 | 41.32094 | 11.31789 | 37161 ft | 455 kts | 152° |
| 2026-04-26 19:16 | 41.26585 | 11.35983 | 37163 ft | 455 kts | 152° |
| 2026-04-26 19:17 | 41.21059 | 11.40181 | 37164 ft | 455 kts | 152° |
| 2026-04-26 19:17 | 41.15557 | 11.44351 | 37163 ft | 458 kts | 152° |
| 2026-04-26 19:18 | 41.09987 | 11.48564 | 37162 ft | 462 kts | 151° |
| 2026-04-26 19:18 | 41.04381 | 11.52795 | 37161 ft | 463 kts | 151° |
| 2026-04-26 19:18 | 41.01636 | 11.54866 | 37158 ft | 451 kts | 151° |
| 2026-04-26 19:19 | 40.98959 | 11.56882 | 37158 ft | 436 kts | 152° |
| 2026-04-26 19:19 | 40.96354 | 11.58840 | 37158 ft | 420 kts | 151° |
| 2026-04-26 19:19 | 40.94061 | 11.60569 | 37162 ft | 412 kts | 151° |
| 2026-04-26 19:20 | 40.88924 | 11.64431 | 37162 ft | 416 kts | 151° |
| 2026-04-26 19:20 | 40.83877 | 11.68209 | 37161 ft | 420 kts | 152° |
| 2026-04-26 19:21 | 40.78777 | 11.72023 | 37158 ft | 421 kts | 152° |
| 2026-04-26 19:21 | 40.73729 | 11.75794 | 37158 ft | 420 kts | 152° |
| 2026-04-26 19:22 | 40.68623 | 11.79601 | 37159 ft | 420 kts | 152° |
| 2026-04-26 19:22 | 40.63543 | 11.83382 | 37158 ft | 420 kts | 152° |
| 2026-04-26 19:23 | 40.58457 | 11.87160 | 37158 ft | 424 kts | 152° |
| 2026-04-26 19:23 | 40.53282 | 11.90996 | 37156 ft | 429 kts | 152° |
| 2026-04-26 19:24 | 40.48041 | 11.94874 | 37154 ft | 433 kts | 152° |
| 2026-04-26 19:24 | 40.40114 | 12.00727 | 37152 ft | 440 kts | 152° |
| 2026-04-26 19:25 | 40.35630 | 12.04032 | 37153 ft | 444 kts | 152° |
| 2026-04-26 19:25 | 40.29331 | 12.08665 | 37155 ft | 450 kts | 152° |
| 2026-04-26 19:26 | 40.23907 | 12.12646 | 37154 ft | 454 kts | 152° |
| 2026-04-26 19:26 | 40.18396 | 12.16685 | 37148 ft | 454 kts | 152° |
| 2026-04-26 19:27 | 40.12873 | 12.20725 | 37145 ft | 453 kts | 152° |
| 2026-04-26 19:27 | 40.07406 | 12.24717 | 37144 ft | 453 kts | 152° |
| 2026-04-26 19:28 | 40.01923 | 12.28712 | 37146 ft | 453 kts | 152° |
| 2026-04-26 19:28 | 39.96554 | 12.32616 | 37148 ft | 453 kts | 152° |
| 2026-04-26 19:29 | 39.91052 | 12.36611 | 37146 ft | 454 kts | 152° |
| 2026-04-26 19:29 | 39.85590 | 12.40569 | 37143 ft | 454 kts | 152° |
| 2026-04-26 19:30 | 39.80107 | 12.44534 | 37144 ft | 454 kts | 152° |
| 2026-04-26 19:30 | 39.75516 | 12.47849 | 37148 ft | 455 kts | 152° |
| 2026-04-26 19:31 | 39.69032 | 12.52522 | 37150 ft | 455 kts | 152° |
| 2026-04-26 19:31 | 39.63496 | 12.56504 | 37149 ft | 455 kts | 152° |
| 2026-04-26 19:32 | 39.57968 | 12.60471 | 37146 ft | 456 kts | 152° |
| 2026-04-26 19:32 | 39.52430 | 12.64440 | 37142 ft | 456 kts | 152° |
| 2026-04-26 19:33 | 39.46845 | 12.68434 | 37140 ft | 456 kts | 153° |
| 2026-04-26 19:33 | 39.41277 | 12.72408 | 37140 ft | 457 kts | 153° |
| 2026-04-26 19:34 | 39.35724 | 12.76365 | 37141 ft | 457 kts | 153° |
| 2026-04-26 19:34 | 39.30140 | 12.80338 | 37141 ft | 457 kts | 153° |
| 2026-04-26 19:35 | 39.24571 | 12.84292 | 37141 ft | 458 kts | 153° |
| 2026-04-26 19:35 | 39.18972 | 12.88261 | 37141 ft | 459 kts | 153° |
| 2026-04-26 19:36 | 39.14331 | 12.91544 | 37142 ft | 459 kts | 153° |
| 2026-04-26 19:36 | 39.07808 | 12.96150 | 37143 ft | 459 kts | 153° |
| 2026-04-26 19:37 | 39.02189 | 13.00111 | 37143 ft | 460 kts | 153° |
| 2026-04-26 19:37 | 38.96590 | 13.04047 | 37144 ft | 460 kts | 153° |
| 2026-04-26 19:38 | 38.90992 | 13.07977 | 37145 ft | 460 kts | 153° |
| 2026-04-26 19:38 | 38.85393 | 13.11896 | 37146 ft | 460 kts | 154° |
| 2026-04-26 19:39 | 38.79650 | 13.15440 | 37149 ft | 459 kts | 158° |
| 2026-04-26 19:39 | 38.73787 | 13.18696 | 37152 ft | 459 kts | 159° |
| 2026-04-26 19:40 | 38.67926 | 13.21917 | 37154 ft | 460 kts | 159° |
| 2026-04-26 19:40 | 38.62528 | 13.24915 | 37155 ft | 460 kts | 159° |
| 2026-04-26 19:41 | 38.56312 | 13.28398 | 37156 ft | 460 kts | 159° |
| 2026-04-26 19:41 | 38.51416 | 13.31154 | 37157 ft | 460 kts | 159° |
| 2026-04-26 19:42 | 38.44571 | 13.35013 | 37159 ft | 461 kts | 159° |
| 2026-04-26 19:42 | 38.38711 | 13.38313 | 37160 ft | 461 kts | 159° |
| 2026-04-26 19:43 | 38.32838 | 13.41616 | 37161 ft | 461 kts | 159° |
| 2026-04-26 19:43 | 38.27023 | 13.44881 | 37161 ft | 462 kts | 159° |
| 2026-04-26 19:44 | 38.21136 | 13.48181 | 37159 ft | 462 kts | 159° |
| 2026-04-26 19:44 | 38.15257 | 13.51471 | 37157 ft | 462 kts | 159° |
| 2026-04-26 19:45 | 38.09363 | 13.54763 | 37152 ft | 462 kts | 159° |
| 2026-04-26 19:45 | 38.06440 | 13.56394 | 36983 ft | 458 kts | 159° |
| 2026-04-26 19:45 | 38.03601 | 13.57978 | 36541 ft | 458 kts | 159° |
| 2026-04-26 19:46 | 38.00789 | 13.59543 | 35890 ft | 462 kts | 159° |
| 2026-04-26 19:46 | 37.97846 | 13.61204 | 35243 ft | 464 kts | 157° |
| 2026-04-26 19:46 | 37.94993 | 13.63090 | 34585 ft | 469 kts | 152° |
| 2026-04-26 19:46 | 37.92308 | 13.65419 | 33929 ft | 473 kts | 144° |
| 2026-04-26 19:47 | 37.89833 | 13.68247 | 33114 ft | 478 kts | 136° |
| 2026-04-26 19:47 | 37.88338 | 13.70326 | 32487 ft | 482 kts | 132° |
| 2026-04-26 19:47 | 37.85707 | 13.74740 | 31070 ft | 487 kts | 124° |
| 2026-04-26 19:47 | 37.84064 | 13.78345 | 29841 ft | 491 kts | 118° |
| 2026-04-26 19:48 | 37.82603 | 13.82267 | 28554 ft | 495 kts | 114° |
| 2026-04-26 19:48 | 37.81308 | 13.86258 | 27958 ft | 485 kts | 112° |
| 2026-04-26 19:48 | 37.80103 | 13.90193 | 27220 ft | 481 kts | 111° |
| 2026-04-26 19:48 | 37.78919 | 13.94154 | 26527 ft | 477 kts | 111° |
| 2026-04-26 19:49 | 37.77760 | 13.98032 | 25943 ft | 471 kts | 111° |
| 2026-04-26 19:49 | 37.76591 | 14.01896 | 25374 ft | 465 kts | 111° |
| 2026-04-26 19:49 | 37.75420 | 14.05670 | 24806 ft | 460 kts | 112° |
| 2026-04-26 19:49 | 37.74242 | 14.09385 | 24245 ft | 454 kts | 112° |
| 2026-04-26 19:50 | 37.73052 | 14.13090 | 23705 ft | 449 kts | 112° |
| 2026-04-26 19:50 | 37.71888 | 14.16684 | 23186 ft | 444 kts | 112° |
| 2026-04-26 19:50 | 37.70715 | 14.20284 | 22661 ft | 439 kts | 112° |
| 2026-04-26 19:50 | 37.69560 | 14.23821 | 22140 ft | 434 kts | 112° |
| 2026-04-26 19:51 | 37.68399 | 14.27370 | 21604 ft | 430 kts | 112° |
| 2026-04-26 19:51 | 37.67265 | 14.30831 | 21080 ft | 426 kts | 112° |
| 2026-04-26 19:51 | 37.66147 | 14.34238 | 20560 ft | 421 kts | 112° |
| 2026-04-26 19:51 | 37.65019 | 14.37675 | 20032 ft | 417 kts | 112° |
| 2026-04-26 19:52 | 37.63925 | 14.41005 | 19507 ft | 413 kts | 112° |
| 2026-04-26 19:52 | 37.62950 | 14.44379 | 19137 ft | 404 kts | 107° |
| 2026-04-26 19:52 | 37.62396 | 14.47823 | 18944 ft | 390 kts | 95° |
| 2026-04-26 19:52 | 37.62349 | 14.51153 | 18799 ft | 376 kts | 87° |
| 2026-04-26 19:53 | 37.62522 | 14.54401 | 18677 ft | 361 kts | 84° |
| 2026-04-26 19:53 | 37.62769 | 14.57491 | 18566 ft | 348 kts | 83° |
| 2026-04-26 19:53 | 37.63028 | 14.60481 | 18454 ft | 334 kts | 83° |
| 2026-04-26 19:53 | 37.63268 | 14.63347 | 18344 ft | 321 kts | 84° |
| 2026-04-26 19:54 | 37.63477 | 14.66053 | 18232 ft | 309 kts | 86° |
| 2026-04-26 19:54 | 37.63503 | 14.68756 | 18047 ft | 299 kts | 98° |
| 2026-04-26 19:54 | 37.62900 | 14.71223 | 17662 ft | 295 kts | 124° |
| 2026-04-26 19:54 | 37.61537 | 14.73047 | 17316 ft | 288 kts | 148° |
| 2026-04-26 19:55 | 37.59733 | 14.74146 | 16917 ft | 283 kts | 165° |
| 2026-04-26 19:55 | 37.57820 | 14.74695 | 16507 ft | 281 kts | 176° |
| 2026-04-26 19:55 | 37.55914 | 14.74392 | 16048 ft | 277 kts | 207° |
| 2026-04-26 19:55 | 37.54435 | 14.72962 | 15786 ft | 266 kts | 233° |
| 2026-04-26 19:56 | 37.53518 | 14.70931 | 15411 ft | 265 kts | 252° |
| 2026-04-26 19:56 | 37.53162 | 14.68691 | 15073 ft | 263 kts | 267° |
| 2026-04-26 19:56 | 37.53126 | 14.66398 | 14722 ft | 263 kts | 269° |
| 2026-04-26 19:56 | 37.53066 | 14.64077 | 14374 ft | 262 kts | 266° |
| 2026-04-26 19:57 | 37.52913 | 14.61825 | 14017 ft | 260 kts | 264° |
| 2026-04-26 19:57 | 37.52712 | 14.59549 | 13657 ft | 259 kts | 263° |
| 2026-04-26 19:57 | 37.52502 | 14.57301 | 13299 ft | 258 kts | 263° |
| 2026-04-26 19:57 | 37.52296 | 14.55059 | 12944 ft | 257 kts | 263° |
| 2026-04-26 19:58 | 37.52094 | 14.52808 | 12614 ft | 256 kts | 263° |
| 2026-04-26 19:58 | 37.51895 | 14.50580 | 12292 ft | 255 kts | 263° |
| 2026-04-26 19:58 | 37.51642 | 14.48425 | 12122 ft | 243 kts | 256° |
| 2026-04-26 19:58 | 37.51010 | 14.46574 | 11931 ft | 222 kts | 232° |
| 2026-04-26 19:59 | 37.49855 | 14.45358 | 11555 ft | 211 kts | 208° |
| 2026-04-26 19:59 | 37.48527 | 14.44697 | 11140 ft | 205 kts | 196° |
| 2026-04-26 19:59 | 37.47112 | 14.44491 | 10642 ft | 204 kts | 177° |
| 2026-04-26 19:59 | 37.45707 | 14.44712 | 10166 ft | 202 kts | 173° |
| 2026-04-26 20:00 | 37.44329 | 14.45027 | 9628 ft | 202 kts | 165° |
| 2026-04-26 20:00 | 37.43073 | 14.45812 | 9048 ft | 204 kts | 140° |
| 2026-04-26 20:00 | 37.42205 | 14.47181 | 8521 ft | 204 kts | 117° |
| 2026-04-26 20:00 | 37.41739 | 14.48844 | 7991 ft | 204 kts | 98° |
| 2026-04-26 20:01 | 37.41758 | 14.50616 | 7486 ft | 202 kts | 82° |
| 2026-04-26 20:01 | 37.41956 | 14.52350 | 6993 ft | 201 kts | 83° |
| 2026-04-26 20:01 | 37.42118 | 14.54099 | 6511 ft | 200 kts | 84° |
| 2026-04-26 20:01 | 37.42262 | 14.55820 | 6128 ft | 195 kts | 84° |
| 2026-04-26 20:02 | 37.42405 | 14.57497 | 5928 ft | 196 kts | 84° |
| 2026-04-26 20:02 | 37.42557 | 14.59216 | 5720 ft | 196 kts | 84° |
| 2026-04-26 20:02 | 37.42706 | 14.60885 | 5517 ft | 187 kts | 83° |
| 2026-04-26 20:02 | 37.42798 | 14.61933 | 5388 ft | 179 kts | 83° |
| 2026-04-26 20:03 | 37.42981 | 14.63992 | 5118 ft | 177 kts | 83° |
| 2026-04-26 20:03 | 37.43119 | 14.65548 | 4916 ft | 177 kts | 83° |
| 2026-04-26 20:03 | 37.43257 | 14.67103 | 4734 ft | 185 kts | 83° |
| 2026-04-26 20:03 | 37.43405 | 14.68783 | 4522 ft | 195 kts | 83° |
| 2026-04-26 20:04 | 37.43555 | 14.70480 | 4308 ft | 195 kts | 83° |
| 2026-04-26 20:04 | 37.43704 | 14.72169 | 4095 ft | 195 kts | 83° |
| 2026-04-26 20:04 | 37.43851 | 14.73846 | 3969 ft | 193 kts | 83° |
| 2026-04-26 20:04 | 37.44000 | 14.75542 | 3923 ft | 194 kts | 83° |
| 2026-04-26 20:05 | 37.44148 | 14.77240 | 3870 ft | 194 kts | 83° |
| 2026-04-26 20:05 | 37.44297 | 14.78949 | 3817 ft | 195 kts | 83° |
| 2026-04-26 20:05 | 37.44443 | 14.80626 | 3739 ft | 196 kts | 83° |
| 2026-04-26 20:05 | 37.44591 | 14.82328 | 3520 ft | 195 kts | 83° |
| 2026-04-26 20:06 | 37.44740 | 14.84032 | 3384 ft | 192 kts | 83° |
| 2026-04-26 20:06 | 37.44886 | 14.85719 | 3234 ft | 196 kts | 83° |
| 2026-04-26 20:06 | 37.45032 | 14.87409 | 2897 ft | 193 kts | 84° |
| 2026-04-26 20:06 | 37.45172 | 14.89087 | 2632 ft | 191 kts | 84° |
| 2026-04-26 20:07 | 37.45284 | 14.90704 | 2513 ft | 179 kts | 85° |
| 2026-04-26 20:07 | 37.45408 | 14.92271 | 2198 ft | 181 kts | 82° |
| 2026-04-26 20:07 | 37.45570 | 14.93845 | 1951 ft | 179 kts | 83° |
| 2026-04-26 20:07 | 37.45692 | 14.95395 | 1693 ft | 180 kts | 84° |
| 2026-04-26 20:08 | 37.45830 | 14.96963 | 1482 ft | 176 kts | 82° |
| 2026-04-26 20:08 | 37.45978 | 14.98476 | 1192 ft | 174 kts | 83° |
| 2026-04-26 20:08 | 37.46111 | 14.99990 | 917 ft | 173 kts | 84° |
| 2026-04-26 20:08 | 37.46235 | 15.01475 | 674 ft | 167 kts | 83° |
| 2026-04-26 20:09 | 37.46362 | 15.02886 | 504 ft | 156 kts | 84° |
| 2026-04-26 20:09 | 37.46477 | 15.04233 | 248 ft | 153 kts | 83° |
| 2026-04-26 20:09 | 37.46590 | 15.05561 | 59 ft | 148 kts | 84° |
| 2026-04-26 20:09 | 37.46683 | 15.06687 | 26 ft | 106 kts | 84° |
| 2026-04-26 20:10 | 37.46744 | 15.07384 | 30 ft | 56 kts | 84° |
| 2026-04-26 20:10 | 37.46818 | 15.07699 | 30 ft | 21 kts | 60° |
| 2026-04-26 20:10 | 37.46842 | 15.07747 | 30 ft | 0 kts | 55° |
| 2026-04-26 20:10 | 37.46866 | 15.07790 | 30 ft | 7 kts | 54° |
| 2026-04-26 20:11 | 37.46925 | 15.07802 | 30 ft | 11 kts | 316° |
| 2026-04-26 20:11 | 37.46933 | 15.07714 | 32 ft | 9 kts | 263° |
| 2026-04-26 20:11 | 37.46925 | 15.07612 | 32 ft | 12 kts | 264° |
| 2026-04-26 20:12 | 37.46899 | 15.07297 | 30 ft | 20 kts | 264° |
| 2026-04-26 20:12 | 37.46885 | 15.07124 | 30 ft | 19 kts | 264° |
| 2026-04-26 20:12 | 37.46870 | 15.06959 | 30 ft | 18 kts | 263° |
| 2026-04-26 20:12 | 37.46864 | 15.06833 | 27 ft | 3 kts | 299° |
| 2026-04-26 20:13 | 37.46882 | 15.06820 | 28 ft | 1 kts | 347° |
| 2026-04-26 20:13 | 37.46899 | 15.06818 | 28 ft | 4 kts | 356° |
| 2026-04-26 20:13 | 37.46924 | 15.06816 | 28 ft | 2 kts | 354° |
| 2026-04-26 20:13 | 37.46928 | 15.06815 | 29 ft | 0 kts | 354° |